Strona główna
METAR-TAF:

METAR-TAF

Lotnisko :

Norwood Memorial Airport

Norwood, Massachusetts, Stany Zjednoczone

Szerokość geograficzna: 42-11-27N, Długość geograficzna: 071-10-26W, wysokość: 15 m

Aktualna obserwacja pogody

Raport powstał 34 minut temu, godzina 05:53 UTC
Wiatr 7 kt od południowo-południowy zachód w porywach dochodzący do 16 kt
Temperatura 11°C
Wilgotność 87%
Ciśnienie 1013 hPa
Widzialność: 16.1 km
Zachmurzenie całkowite na wysokości 1300 ft

METAR: KOWD 240553Z AUTO 21007G16KT 10SM OVC013 11/09 A2992 RMK AO2 RAB30E39 SLP130 P0000 60000 T01110089 10117 20061 56019

czas: 01:27 (06:27 UTC)


TAF: brakujący

Obserwacja i prognoza pogody dla ponad 4000 lotnisk (raport METAR i TAF).

Dostępne stacje oznaczono żółtymi i czerwonymi punktami na mapie.

Najedź kursorem aby zobaczyć nazwę stacji.

Kliknij aby zobaczyć obserwacje i prognozy pogody.

Aby zmienić mapę: kliknij na zielony przycisk z czarnym krzyżykiem, aby powiększyć; na zielony przycisk z myślnikiem, aby pomniejszyć; na zielone strzałki, aby przejść do map sąsiednich.


METAR-TAF: